1898 NOT_NAMED (1898043S08055)


IBTrACS version v04r00. Visit IBTrACS website for data access.
Please direct all questions to the IBTrACS Q and A forum

Storm track - Intensity - Wind Radii - Intensity Data - Source Data - All data

Summary Information

Storm ID 1898043S08055
Start Feb 12 00Z
End Feb 20 00Z
ATCF IDs
Track status Best track data.

Storm track plot

Map of storm track

Intensity plots

No Intensity information for this storm


Radial wind information

No radial wind information for this storm


Position and Intensity Table

BASIN ISO_TIME_________ NATURE LAT LON
degrees north degrees east
SI 1898-02-12 00:00:00 TS -8.10 54.60
SI 03:00:00 TS -8.40 54.40
SI 06:00:00 TS -8.70 54.20
SI 09:00:00 TS -9.00 54.01
SI 12:00:00 TS -9.30 53.80
SI 15:00:00 TS -9.61 53.52
SI 18:00:00 TS -9.90 53.20
SI 21:00:00 TS -10.16 52.92
SI 1898-02-13 00:00:00 TS -10.40 52.60
SI 03:00:00 TS -10.67 52.17
SI 06:00:00 TS -10.90 51.70
SI 09:00:00 TS -11.07 51.27
SI 12:00:00 TS -11.20 50.80
SI 15:00:00 TS -11.29 50.21
SI 18:00:00 TS -11.40 49.60
SI 21:00:00 TS -11.56 49.03
SI 1898-02-14 00:00:00 TS -11.80 48.50
SI 03:00:00 TS -12.13 48.03
SI 06:00:00 TS -12.50 47.60
SI 09:00:00 TS -12.86 47.18
SI 12:00:00 TS -13.20 46.80
SI 15:00:00 TS -13.51 46.44
SI 18:00:00 TS -13.80 46.10
SI 21:00:00 TS -14.12 45.73
SI 1898-02-15 00:00:00 TS -14.40 45.40
SI 03:00:00 TS -14.57 45.18
SI 06:00:00 TS -14.70 45.00
SI 09:00:00 TS -14.84 44.81
SI 12:00:00 TS -15.00 44.60
SI 15:00:00 TS -15.19 44.35
SI 18:00:00 TS -15.40 44.10
SI 21:00:00 TS -15.58 43.90
SI 1898-02-16 00:00:00 TS -15.80 43.70
SI 03:00:00 TS -16.08 43.46
SI 06:00:00 TS -16.40 43.20
SI 09:00:00 TS -16.68 42.94
SI 12:00:00 TS -17.00 42.70
SI 15:00:00 TS -17.38 42.48
SI 18:00:00 TS -17.80 42.30
SI 21:00:00 TS -18.19 42.18
SI 1898-02-17 00:00:00 TS -18.60 42.10
SI 03:00:00 TS -19.03 42.03
SI 06:00:00 TS -19.50 42.00
SI 09:00:00 TS -20.00 42.03
SI 12:00:00 TS -20.50 42.10
SI 15:00:00 TS -20.96 42.14
SI 18:00:00 TS -21.40 42.20
SI 21:00:00 TS -21.84 42.28
SI 1898-02-18 00:00:00 TS -22.30 42.40
SI 03:00:00 TS -22.79 42.58
SI 06:00:00 TS -23.30 42.80
SI 09:00:00 TS -23.82 43.05
SI 12:00:00 TS -24.30 43.30
SI 15:00:00 TS -24.68 43.49
SI 18:00:00 TS -25.00 43.70
SI 21:00:00 TS -25.32 43.99
SI 1898-02-19 00:00:00 TS -25.60 44.30
SI 03:00:00 TS -25.86 44.59
SI 06:00:00 TS -26.10 44.90
SI 09:00:00 TS -26.31 45.25
SI 12:00:00 TS -26.50 45.60
SI 15:00:00 TS -26.71 45.90
SI 18:00:00 TS -26.90 46.20
SI 21:00:00 TS -27.06 46.54
SI 1898-02-20 00:00:00 TS -27.20 46.90

Source Information

Agency Information
USA
TOKYO
CMA
HKO
NEWDELHI
REUNION
BOM
NADI
WELLINGTON
DS824 s_hem.dat:99:NOT NAMED
TD9636
TD9635
NEUMANN
MLC

All available IBTrACS Data

SEASON BASIN SUBBASIN ISO_TIME_________ NATURE LAT LON DIST2LAND LANDFALL IFLAG USA SSHS DS824 LAT DS824 LON DS824 STAGE STORM SPEED STORM DIR
Year degrees north degrees east km km 1 degrees north degrees east kts degrees
1898 SI MM 1898-02-12 00:00:00 TS -8.10 54.60 731 693 _________O____ -1 -8.10 54.60 TC 7 214
1898 SI MM 03:00:00 TS -8.40 54.40 693 655 _________P____ -1 -8.40 54.40 TC 7 213
1898 SI MM 06:00:00 TS -8.70 54.20 655 617 _________O____ -1 -8.70 54.20 TC 7 212
1898 SI MM 09:00:00 TS -9.00 54.01 617 580 _________P____ -1 -9.00 54.01 TC 7 213
1898 SI MM 12:00:00 TS -9.30 53.80 580 534 _________O____ -1 -9.30 53.80 TC 8 219
1898 SI MM 15:00:00 TS -9.61 53.52 534 488 _________P____ -1 -9.61 53.52 TC 8 225
1898 SI MM 18:00:00 TS -9.90 53.20 488 448 _________O____ -1 -9.90 53.20 TC 8 227
1898 SI MM 21:00:00 TS -10.16 52.92 442 403 _________P____ -1 -10.16 52.92 TC 8 230
1898 SI MM 1898-02-13 00:00:00 TS -10.40 52.60 403 348 _________O____ -1 -10.40 52.60 TC 9 235
1898 SI MM 03:00:00 TS -10.67 52.17 348 289 _________P____ -1 -10.67 52.17 TC 10 241
1898 SI MM 06:00:00 TS -10.90 51.70 289 240 _________O____ -1 -10.90 51.70 TC 10 245
1898 SI MM 09:00:00 TS -11.07 51.27 240 189 _________P____ -1 -11.07 51.27 TC 9 251
1898 SI MM 12:00:00 TS -11.20 50.80 189 132 _________O____ -1 -11.20 50.80 TC 11 258
1898 SI MM 15:00:00 TS -11.29 50.21 132 84 _________P____ -1 -11.29 50.21 TC 12 260
1898 SI MM 18:00:00 TS -11.40 49.60 84 57 _________O____ -1 -11.40 49.60 TC 12 257
1898 SI MM 21:00:00 TS -11.56 49.03 60 60 _________P____ -1 -11.56 49.03 TC 12 250
1898 SI MM 1898-02-14 00:00:00 TS -11.80 48.50 78 78 _________O____ -1 -11.80 48.50 TC 11 240
1898 SI MM 03:00:00 TS -12.13 48.03 97 93 _________P____ -1 -12.13 48.03 TC 11 232
1898 SI MM 06:00:00 TS -12.50 47.60 130 117 _________O____ -1 -12.50 47.60 TC 11 228
1898 SI MM 09:00:00 TS -12.86 47.18 116 116 _________P____ -1 -12.86 47.18 TC 11 228
1898 SI MM 12:00:00 TS -13.20 46.80 131 131 _________O____ -1 -13.20 46.80 TC 10 228
1898 SI MM 15:00:00 TS -13.51 46.44 163 162 _________P____ -1 -13.51 46.44 TC 9 229
1898 SI MM 18:00:00 TS -13.80 46.10 178 169 _________O____ -1 -13.80 46.10 TC 9 228
1898 SI MM 21:00:00 TS -14.12 45.73 174 163 _________P____ -1 -14.12 45.73 TC 9 229
1898 SI MM 1898-02-15 00:00:00 TS -14.40 45.40 169 151 _________O____ -1 -14.40 45.40 TC 7 230
1898 SI MM 03:00:00 TS -14.57 45.18 151 144 _________P____ -1 -14.57 45.18 TC 5 232
1898 SI MM 06:00:00 TS -14.70 45.00 145 136 _________O____ -1 -14.70 45.00 TC 4 233
1898 SI MM 09:00:00 TS -14.84 44.81 138 119 _________P____ -1 -14.84 44.81 TC 5 232
1898 SI MM 12:00:00 TS -15.00 44.60 124 116 _________O____ -1 -15.00 44.60 TC 6 232
1898 SI MM 15:00:00 TS -15.19 44.35 116 102 _________P____ -1 -15.19 44.35 TC 6 230
1898 SI MM 18:00:00 TS -15.40 44.10 105 94 _________O____ -1 -15.40 44.10 TC 6 228
1898 SI MM 21:00:00 TS -15.58 43.90 94 92 _________P____ -1 -15.58 43.90 TC 6 224
1898 SI MM 1898-02-16 00:00:00 TS -15.80 43.70 93 91 _________O____ -1 -15.80 43.70 TC 7 220
1898 SI MM 03:00:00 TS -16.08 43.46 98 98 _________P____ -1 -16.08 43.46 TC 8 219
1898 SI MM 06:00:00 TS -16.40 43.20 128 125 _________O____ -1 -16.40 43.20 TC 8 219
1898 SI MM 09:00:00 TS -16.68 42.94 138 132 _________P____ -1 -16.68 42.94 TC 8 219
1898 SI MM 12:00:00 TS -17.00 42.70 139 135 _________O____ -1 -17.00 42.70 TC 8 212
1898 SI MM 15:00:00 TS -17.38 42.48 148 148 _________P____ -1 -17.38 42.48 TC 9 206
1898 SI MM 18:00:00 TS -17.80 42.30 172 172 _________O____ -1 -17.80 42.30 TC 9 200
1898 SI MM 21:00:00 TS -18.19 42.18 190 190 _________P____ -1 -18.19 42.18 TC 8 193
1898 SI MM 1898-02-17 00:00:00 TS -18.60 42.10 201 201 _________O____ -1 -18.60 42.10 TC 9 189
1898 SI MM 03:00:00 TS -19.03 42.03 221 221 _________P____ -1 -19.03 42.03 TC 9 186
1898 SI MM 06:00:00 TS -19.50 42.00 235 217 _________O____ -1 -19.50 42.00 TC 10 179
1898 SI MM 09:00:00 TS -20.00 42.03 217 176 _________P____ -1 -20.00 42.03 TC 10 174
1898 SI MM 12:00:00 TS -20.50 42.10 176 155 _________O____ -1 -20.50 42.10 TC 10 174
1898 SI MM 15:00:00 TS -20.96 42.14 151 131 _________P____ -1 -20.96 42.14 TC 9 174
1898 SI MM 18:00:00 TS -21.40 42.20 131 102 _________O____ -1 -21.40 42.20 TC 9 172
1898 SI MM 21:00:00 TS -21.84 42.28 102 82 _________P____ -1 -21.84 42.28 TC 9 168
1898 SI MM 1898-02-18 00:00:00 TS -22.30 42.40 82 75 _________O____ -1 -22.30 42.40 TC 10 164
1898 SI MM 03:00:00 TS -22.79 42.58 79 75 _________P____ -1 -22.79 42.58 TC 11 160
1898 SI MM 06:00:00 TS -23.30 42.80 81 61 _________O____ -1 -23.30 42.80 TC 11 157
1898 SI MM 09:00:00 TS -23.82 43.05 62 42 _________P____ -1 -23.82 43.05 TC 11 155
1898 SI MM 12:00:00 TS -24.30 43.30 46 30 _________O____ -1 -24.30 43.30 TC 10 155
1898 SI MM 15:00:00 TS -24.68 43.49 32 30 _________P____ -1 -24.68 43.49 TC 8 153
1898 SI MM 18:00:00 TS -25.00 43.70 30 23 _________O____ -1 -25.00 43.70 TC 8 145
1898 SI MM 21:00:00 TS -25.32 43.99 30 30 _________P____ -1 -25.32 43.99 TC 8 138
1898 SI MM 1898-02-19 00:00:00 TS -25.60 44.30 34 34 _________O____ -1 -25.60 44.30 TC 8 135
1898 SI MM 03:00:00 TS -25.86 44.59 60 53 _________P____ -1 -25.86 44.59 TC 7 133
1898 SI MM 06:00:00 TS -26.10 44.90 63 59 _________O____ -1 -26.10 44.90 TC 7 127
1898 SI MM 09:00:00 TS -26.31 45.25 78 78 _________P____ -1 -26.31 45.25 TC 7 123
1898 SI MM 12:00:00 TS -26.50 45.60 101 101 _________O____ -1 -26.50 45.60 TC 7 125
1898 SI MM 15:00:00 TS -26.71 45.90 129 129 _________P____ -1 -26.71 45.90 TC 7 127
1898 SI MM 18:00:00 TS -26.90 46.20 161 161 _________O____ -1 -26.90 46.20 TC 7 122
1898 SI MM 21:00:00 TS -27.06 46.54 194 194 _________P____ -1 -27.06 46.54 TC 7 116
1898 SI MM 1898-02-20 00:00:00 TS -27.20 46.90 223 _________O____ -1 -27.20 46.90 TC 7 114